Time;durP1;ratioP1;P1;durP2;ratioP2;P2;SDS_P1;SDS_P2;PMS_P1;PMS_P2;Temp;Humidity;BMP_temperature;BMP_pressure;BME280_temperature;BME280_humidity;BME280_pressure;Samples;Min_cycle;Max_cycle;Signal;HPM_P1;HPM_P2
2021/07/25 00:01:27;;;;;;;;;;;19.80;99.90;;;;;;5018205;28;19916;-89
2021/07/25 00:03:52;;;;;;;;;;;19.80;99.90;;;;;;5035879;28;20366;-89
2021/07/25 00:06:18;;;;;;;;;;;19.80;99.90;;;;;;5018142;28;19909;-89
2021/07/25 00:08:44;;;;;;;;;;;19.80;99.90;;;;;;5017982;28;19909;-89
2021/07/25 00:11:10;;;;;;;;;;;19.80;99.90;;;;;;5017407;28;19947;-89
2021/07/25 00:13:40;;;;;;;;;;;19.80;99.90;;;;;;5017901;28;20044;-89
2021/07/25 00:16:06;;;;;;;;;;;19.80;99.90;;;;;;5035668;28;20008;-89
2021/07/25 00:18:32;;;;;;;;;;;19.80;99.90;;;;;;5017902;28;19909;-89
2021/07/25 00:20:58;;;;;;;;;;;19.80;99.90;;;;;;5017271;28;20286;-89
2021/07/25 00:23:26;;;;;;;;;;;19.80;99.90;;;;;;5017683;28;19909;-89
2021/07/25 00:25:52;;;;;;;;;;;19.80;99.90;;;;;;5035336;28;20000;-89
2021/07/25 00:28:19;;;;;;;;;;;19.80;99.90;;;;;;5017631;28;20036;-89
2021/07/25 00:30:45;;;;;;;;;;;19.80;99.90;;;;;;5017197;28;19909;-89
2021/07/25 00:33:10;;;;;;;;;;;19.80;99.90;;;;;;5017646;28;20326;-90
2021/07/25 00:35:36;;;;;;;;;;;19.70;99.90;;;;;;5017530;28;19971;-90
2021/07/25 00:38:02;;;;;;;;;;;19.70;99.90;;;;;;5017281;28;20273;-89
2021/07/25 00:40:40;;;;;;;;;;;19.80;99.90;;;;;;5016869;28;19910;-89
2021/07/25 00:43:06;;;;;;;;;;;19.70;99.90;;;;;;5017380;28;19917;-89
2021/07/25 00:45:31;;;;;;;;;;;19.60;99.90;;;;;;5017481;28;20316;-89
2021/07/25 00:47:57;;;;;;;;;;;19.60;99.90;;;;;;5017184;28;20008;-90
2021/07/25 00:50:23;;;;;;;;;;;19.60;99.90;;;;;;5016695;28;19917;-90
2021/07/25 00:52:49;;;;;;;;;;;19.50;99.90;;;;;;5017119;28;20274;-90
2021/07/25 00:55:15;;;;;;;;;;;19.60;99.90;;;;;;5035219;28;19971;-89
2021/07/25 00:57:40;;;;;;;;;;;19.50;99.90;;;;;;5017165;28;20337;-89
2021/07/25 01:00:07;;;;;;;;;;;19.50;99.90;;;;;;5016586;28;19935;-89
2021/07/25 01:02:37;;;;;;;;;;;19.50;99.90;;;;;;5034801;28;19948;-89
2021/07/25 01:05:09;;;;;;;;;;;19.50;99.90;;;;;;5017079;28;19911;-89
2021/07/25 01:07:39;;;;;;;;;;;19.50;99.90;;;;;;5034778;28;19909;-89
2021/07/25 01:10:08;;;;;;;;;;;19.40;99.90;;;;;;5016111;28;19916;-89
2021/07/25 01:12:39;;;;;;;;;;;19.40;99.90;;;;;;5034314;28;19913;-89
2021/07/25 01:15:06;;;;;;;;;;;19.40;99.90;;;;;;5016851;28;19992;-89
2021/07/25 01:17:33;;;;;;;;;;;19.40;99.90;;;;;;5016647;28;20026;-89
2021/07/25 01:20:00;;;;;;;;;;;19.40;99.90;;;;;;5016155;28;20329;-90
2021/07/25 01:22:25;;;;;;;;;;;19.40;99.90;;;;;;5034433;28;20404;-89
2021/07/25 01:24:51;;;;;;;;;;;19.40;99.90;;;;;;5016894;28;19913;-89
2021/07/25 01:27:32;;;;;;;;;;;19.30;99.90;;;;;;5034366;28;20374;-89
2021/07/25 01:29:58;;;;;;;;;;;19.30;99.90;;;;;;5016229;28;20286;-89
2021/07/25 01:32:25;;;;;;;;;;;19.30;99.90;;;;;;5033982;28;20028;-89
2021/07/25 01:34:51;;;;;;;;;;;19.30;99.90;;;;;;5016563;28;19913;-89
2021/07/25 01:37:17;;;;;;;;;;;19.30;99.90;;;;;;5016329;28;19967;-89
2021/07/25 01:39:42;;;;;;;;;;;19.30;99.90;;;;;;5016421;28;19913;-88
2021/07/25 01:42:08;;;;;;;;;;;19.30;99.90;;;;;;5016188;28;19909;-88
2021/07/25 01:44:33;;;;;;;;;;;19.20;99.90;;;;;;5016252;28;19917;-88
2021/07/25 01:46:59;;;;;;;;;;;19.20;99.90;;;;;;5016112;28;20005;-88
2021/07/25 01:49:25;;;;;;;;;;;19.20;99.90;;;;;;5033405;28;19912;-88
2021/07/25 01:51:50;;;;;;;;;;;19.20;99.90;;;;;;5033674;28;19921;-88
2021/07/25 01:54:16;;;;;;;;;;;19.20;99.90;;;;;;5016013;28;19909;-88
2021/07/25 01:56:41;;;;;;;;;;;19.20;99.90;;;;;;5015899;28;20016;-89
2021/07/25 01:59:07;;;;;;;;;;;19.10;99.90;;;;;;5015354;28;20378;-88
2021/07/25 02:01:32;;;;;;;;;;;19.10;99.90;;;;;;5015795;28;20274;-88
2021/07/25 02:03:58;;;;;;;;;;;19.10;99.90;;;;;;5033662;28;19948;-88
2021/07/25 02:06:23;;;;;;;;;;;19.10;99.90;;;;;;5015792;28;20491;-88
2021/07/25 02:08:49;;;;;;;;;;;19.10;99.90;;;;;;5033169;28;19909;-88
2021/07/25 02:11:14;;;;;;;;;;;19.10;99.90;;;;;;5015557;28;20286;-88
2021/07/25 02:13:40;;;;;;;;;;;19.10;99.90;;;;;;5015571;28;19959;-88
2021/07/25 02:16:05;;;;;;;;;;;19.10;99.90;;;;;;5033215;28;19917;-88
2021/07/25 02:18:31;;;;;;;;;;;19.10;99.90;;;;;;5015556;28;19962;-88
2021/07/25 02:20:56;;;;;;;;;;;19.10;99.90;;;;;;5014995;28;19909;-88
2021/07/25 02:23:22;;;;;;;;;;;19.10;99.90;;;;;;5014529;28;20332;-89
2021/07/25 02:25:47;;;;;;;;;;;19.10;99.90;;;;;;5014541;28;19909;-89
2021/07/25 02:28:12;;;;;;;;;;;19.00;99.90;;;;;;5014365;28;20392;-88
2021/07/25 02:30:38;;;;;;;;;;;19.00;99.90;;;;;;5032460;28;19920;-89
2021/07/25 02:33:04;;;;;;;;;;;19.00;99.90;;;;;;5015299;28;19909;-88
2021/07/25 02:35:30;;;;;;;;;;;19.00;99.90;;;;;;5015309;28;19948;-88
2021/07/25 02:37:55;;;;;;;;;;;18.90;99.90;;;;;;5015324;28;19976;-88
2021/07/25 02:40:21;;;;;;;;;;;19.00;99.90;;;;;;5032404;28;19913;-88
2021/07/25 02:42:47;;;;;;;;;;;18.90;99.90;;;;;;5015001;28;20426;-88
2021/07/25 02:45:12;;;;;;;;;;;18.90;99.90;;;;;;5032815;28;19909;-89
2021/07/25 02:47:38;;;;;;;;;;;18.90;99.90;;;;;;5015450;28;19909;-88
2021/07/25 02:50:04;;;;;;;;;;;18.90;99.90;;;;;;5015685;28;19917;-88
2021/07/25 02:52:29;;;;;;;;;;;18.90;99.90;;;;;;5034873;28;19917;-88
2021/07/25 02:54:55;;;;;;;;;;;18.90;99.90;;;;;;5017382;28;19909;-88
2021/07/25 02:57:20;;;;;;;;;;;18.90;99.90;;;;;;5034335;28;19917;-88
2021/07/25 02:59:46;;;;;;;;;;;18.90;99.90;;;;;;5033573;28;19916;-88
2021/07/25 03:02:11;;;;;;;;;;;18.80;99.90;;;;;;5033950;28;20285;-88
2021/07/25 03:04:37;;;;;;;;;;;18.80;99.90;;;;;;5033263;28;20273;-88
2021/07/25 03:07:02;;;;;;;;;;;18.80;99.90;;;;;;5033805;28;19918;-88
2021/07/25 03:09:28;;;;;;;;;;;18.80;99.90;;;;;;5032196;28;19910;-88
2021/07/25 03:11:53;;;;;;;;;;;18.80;99.90;;;;;;5014829;28;20285;-88
2021/07/25 03:14:19;;;;;;;;;;;18.70;99.90;;;;;;5014719;28;20385;-88
2021/07/25 03:16:45;;;;;;;;;;;18.70;99.90;;;;;;5032395;28;19940;-88
2021/07/25 03:19:10;;;;;;;;;;;18.70;99.90;;;;;;5014130;28;19917;-88
2021/07/25 03:21:36;;;;;;;;;;;18.70;99.90;;;;;;5014651;28;19932;-88
2021/07/25 03:24:02;;;;;;;;;;;18.70;99.90;;;;;;5014803;28;19959;-89
2021/07/25 03:26:27;;;;;;;;;;;18.70;99.90;;;;;;5014929;28;19909;-89
2021/07/25 03:28:52;;;;;;;;;;;18.70;99.90;;;;;;5014263;28;19972;-89
2021/07/25 03:31:18;;;;;;;;;;;18.70;99.90;;;;;;5014761;28;20384;-88
2021/07/25 03:33:44;;;;;;;;;;;18.70;99.90;;;;;;5015373;28;19916;-88
2021/07/25 03:36:09;;;;;;;;;;;18.60;99.90;;;;;;5018731;28;19917;-88
2021/07/25 03:38:35;;;;;;;;;;;18.60;99.90;;;;;;5018619;28;19915;-88
2021/07/25 03:41:03;;;;;;;;;;;18.60;99.90;;;;;;5017952;28;19948;-88
2021/07/25 03:43:30;;;;;;;;;;;18.60;99.90;;;;;;5036152;28;19999;-88
2021/07/25 03:45:56;;;;;;;;;;;18.60;99.90;;;;;;5036307;28;19909;-89
2021/07/25 03:48:22;;;;;;;;;;;18.70;99.90;;;;;;5018345;28;20277;-89
2021/07/25 03:50:48;;;;;;;;;;;18.60;99.90;;;;;;5017675;28;19964;-89
2021/07/25 03:53:13;;;;;;;;;;;18.70;99.90;;;;;;5018279;28;19967;-88
2021/07/25 03:55:42;;;;;;;;;;;18.70;99.90;;;;;;5018268;28;20306;-89
2021/07/25 03:58:08;;;;;;;;;;;18.70;99.90;;;;;;5018109;28;19913;-89
2021/07/25 04:00:33;;;;;;;;;;;18.70;99.90;;;;;;5017674;28;19909;-88
2021/07/25 04:02:59;;;;;;;;;;;18.70;99.90;;;;;;5035839;28;19909;-88
2021/07/25 04:05:25;;;;;;;;;;;18.70;99.90;;;;;;5018182;28;19909;-89
2021/07/25 04:07:50;;;;;;;;;;;18.70;99.90;;;;;;5018005;28;19909;-89
2021/07/25 04:10:16;;;;;;;;;;;18.70;99.90;;;;;;5017503;28;20027;-88
2021/07/25 04:12:41;;;;;;;;;;;18.70;99.90;;;;;;5017864;28;19910;-88
2021/07/25 04:15:07;;;;;;;;;;;18.60;99.90;;;;;;5035666;28;19932;-89
2021/07/25 04:17:34;;;;;;;;;;;18.60;99.90;;;;;;5035513;28;19967;-89
2021/07/25 04:20:00;;;;;;;;;;;18.60;99.90;;;;;;5017331;28;19909;-89
2021/07/25 04:22:26;;;;;;;;;;;18.60;99.90;;;;;;5035459;28;19915;-89
2021/07/25 04:24:51;;;;;;;;;;;18.60;99.90;;;;;;5017792;28;20286;-88
2021/07/25 04:27:17;;;;;;;;;;;18.60;99.90;;;;;;5017709;28;19931;-88
2021/07/25 04:29:42;;;;;;;;;;;18.60;99.90;;;;;;5017487;28;19913;-88
2021/07/25 04:32:08;;;;;;;;;;;18.60;99.90;;;;;;5017637;28;20003;-88
2021/07/25 04:34:34;;;;;;;;;;;18.60;99.90;;;;;;5017601;28;19943;-89
2021/07/25 04:37:01;;;;;;;;;;;18.60;99.90;;;;;;5017475;28;19936;-88
2021/07/25 04:39:27;;;;;;;;;;;18.60;99.90;;;;;;5034572;28;19916;-89
2021/07/25 04:41:55;;;;;;;;;;;18.60;99.90;;;;;;5034954;28;19909;-88
2021/07/25 04:44:28;;;;;;;;;;;18.70;99.90;;;;;;5017761;28;19944;-88
2021/07/25 04:46:54;;;;;;;;;;;18.70;99.90;;;;;;5016462;28;19909;-88
2021/07/25 04:49:22;;;;;;;;;;;18.70;99.90;;;;;;5016721;28;20008;-88
2021/07/25 04:51:51;;;;;;;;;;;18.70;99.90;;;;;;5017060;28;19917;-89
2021/07/25 04:54:17;;;;;;;;;;;18.70;99.90;;;;;;5017310;28;19909;-88
2021/07/25 04:56:57;;;;;;;;;;;18.70;99.90;;;;;;5017075;28;19917;-89
2021/07/25 04:59:35;;;;;;;;;;;18.80;99.90;;;;;;5016729;28;19910;-89
2021/07/25 05:02:04;;;;;;;;;;;18.80;99.90;;;;;;5034859;28;19909;-88
2021/07/25 05:04:29;;;;;;;;;;;18.80;99.90;;;;;;5017159;28;19992;-88
2021/07/25 05:06:55;;;;;;;;;;;18.80;99.90;;;;;;5017045;28;20420;-88
2021/07/25 05:09:21;;;;;;;;;;;18.80;99.90;;;;;;5016398;28;20405;-89
2021/07/25 05:11:51;;;;;;;;;;;18.80;99.90;;;;;;5034482;28;19916;-88
2021/07/25 05:14:20;;;;;;;;;;;18.90;99.90;;;;;;5016915;28;19917;-88
2021/07/25 05:16:48;;;;;;;;;;;18.90;99.90;;;;;;5016770;28;19913;-88
2021/07/25 05:19:18;;;;;;;;;;;18.90;99.90;;;;;;5016148;28;19909;-88
2021/07/25 05:21:47;;;;;;;;;;;18.90;99.90;;;;;;5016614;28;19909;-89
2021/07/25 05:24:14;;;;;;;;;;;18.90;99.90;;;;;;5016677;28;19916;-89
2021/07/25 05:26:41;;;;;;;;;;;18.90;99.90;;;;;;5016601;28;19909;-89
2021/07/25 05:29:06;;;;;;;;;;;19.00;99.90;;;;;;5016041;28;20018;-88
2021/07/25 05:31:33;;;;;;;;;;;19.00;99.90;;;;;;5016471;28;20425;-89
2021/07/25 05:33:59;;;;;;;;;;;19.10;99.90;;;;;;5016728;28;19909;-88
2021/07/25 05:36:25;;;;;;;;;;;19.10;99.90;;;;;;5016436;28;19917;-88
2021/07/25 05:38:51;;;;;;;;;;;19.10;99.90;;;;;;5033622;28;19913;-88
2021/07/25 05:41:16;;;;;;;;;;;19.10;99.90;;;;;;5033742;28;19913;-88
2021/07/25 05:43:42;;;;;;;;;;;19.20;99.90;;;;;;5016272;28;19915;-88
2021/07/25 05:46:07;;;;;;;;;;;19.20;99.90;;;;;;5016270;28;20436;-88
2021/07/25 05:48:33;;;;;;;;;;;19.20;99.90;;;;;;5033906;28;19916;-88
2021/07/25 05:51:02;;;;;;;;;;;19.30;99.90;;;;;;5015365;28;19921;-89
2021/07/25 05:53:28;;;;;;;;;;;19.30;99.90;;;;;;5034508;28;20384;-87
2021/07/25 05:55:53;;;;;;;;;;;19.30;99.90;;;;;;5015902;28;19913;-86
2021/07/25 05:58:19;;;;;;;;;;;19.40;99.90;;;;;;5015675;28;19909;-87
2021/07/25 06:00:44;;;;;;;;;;;19.40;99.90;;;;;;5015387;28;20363;-86
2021/07/25 06:03:12;;;;;;;;;;;19.40;99.90;;;;;;5015767;28;19913;-87
2021/07/25 06:05:37;;;;;;;;;;;19.40;99.90;;;;;;5015911;28;19912;-86
2021/07/25 06:08:04;;;;;;;;;;;19.40;99.90;;;;;;5033486;28;19909;-86
2021/07/25 06:10:30;;;;;;;;;;;19.50;99.90;;;;;;5015178;28;19913;-87
2021/07/25 06:12:57;;;;;;;;;;;19.50;99.90;;;;;;5016258;28;20390;-88
2021/07/25 06:15:23;;;;;;;;;;;19.60;99.90;;;;;;5015786;28;19910;-88
2021/07/25 06:17:49;;;;;;;;;;;19.60;99.90;;;;;;5015491;28;19920;-88
2021/07/25 06:20:14;;;;;;;;;;;19.60;99.90;;;;;;5015015;28;19909;-88
2021/07/25 06:22:41;;;;;;;;;;;19.60;99.90;;;;;;5033233;28;19975;-87
2021/07/25 06:25:07;;;;;;;;;;;19.70;99.90;;;;;;5016053;28;19932;-87
2021/07/25 06:27:33;;;;;;;;;;;19.70;99.90;;;;;;5015415;28;19925;-88
2021/07/25 06:29:58;;;;;;;;;;;19.70;99.90;;;;;;5033079;28;20317;-88
2021/07/25 06:32:24;;;;;;;;;;;19.70;99.90;;;;;;5032725;28;19932;-88
2021/07/25 06:34:49;;;;;;;;;;;19.70;99.90;;;;;;5033129;28;19916;-88
2021/07/25 06:37:15;;;;;;;;;;;19.80;99.90;;;;;;5015412;28;19971;-88
2021/07/25 06:39:40;;;;;;;;;;;19.80;99.90;;;;;;5033122;28;19913;-87
2021/07/25 06:42:08;;;;;;;;;;;19.80;99.90;;;;;;5015770;28;19909;-87
2021/07/25 06:44:34;;;;;;;;;;;19.80;99.90;;;;;;5032799;28;20204;-87
2021/07/25 06:46:59;;;;;;;;;;;19.90;99.90;;;;;;5032838;28;19913;-88
2021/07/25 06:49:25;;;;;;;;;;;19.90;99.90;;;;;;5014541;28;19906;-87
2021/07/25 06:51:50;;;;;;;;;;;19.90;99.90;;;;;;5033178;28;19921;-87
2021/07/25 06:54:16;;;;;;;;;;;19.90;99.90;;;;;;5015789;28;19909;-87
2021/07/25 06:56:41;;;;;;;;;;;20.00;99.90;;;;;;5015851;28;20028;-88
2021/07/25 06:59:07;;;;;;;;;;;20.00;99.90;;;;;;5015496;28;19913;-88
2021/07/25 07:01:32;;;;;;;;;;;20.00;99.90;;;;;;5032783;28;19919;-88
2021/07/25 07:03:58;;;;;;;;;;;20.00;99.90;;;;;;5032657;28;19909;-87
2021/07/25 07:06:23;;;;;;;;;;;20.00;99.90;;;;;;5032608;28;19909;-88
2021/07/25 07:08:49;;;;;;;;;;;20.10;99.90;;;;;;5013939;28;20027;-88
2021/07/25 07:11:14;;;;;;;;;;;20.10;99.90;;;;;;5032331;28;19959;-88
2021/07/25 07:13:40;;;;;;;;;;;20.10;99.90;;;;;;5034159;28;19910;-87
2021/07/25 07:16:05;;;;;;;;;;;20.20;99.90;;;;;;5034634;28;19913;-88
2021/07/25 07:18:31;;;;;;;;;;;20.20;99.90;;;;;;5034934;28;19913;-88
2021/07/25 07:20:56;;;;;;;;;;;20.20;99.90;;;;;;5014325;28;20004;-87
2021/07/25 07:23:24;;;;;;;;;;;20.20;99.90;;;;;;5014579;28;19909;-88
2021/07/25 07:25:50;;;;;;;;;;;20.20;99.90;;;;;;5014848;28;19910;-88
2021/07/25 07:28:17;;;;;;;;;;;20.30;99.90;;;;;;5014669;28;20375;-88
2021/07/25 07:30:43;;;;;;;;;;;20.30;99.90;;;;;;5013976;28;19913;-87
2021/07/25 07:33:09;;;;;;;;;;;20.30;99.90;;;;;;5032268;28;20100;-88
2021/07/25 07:35:35;;;;;;;;;;;20.30;99.90;;;;;;5014539;28;19918;-89
2021/07/25 07:38:00;;;;;;;;;;;20.40;99.90;;;;;;5014453;28;20366;-88
2021/07/25 07:40:26;;;;;;;;;;;20.40;99.90;;;;;;5014800;28;20425;-89
2021/07/25 07:42:52;;;;;;;;;;;20.40;99.90;;;;;;5014466;28;20008;-89
2021/07/25 07:45:18;;;;;;;;;;;20.40;99.90;;;;;;5014589;28;19919;-90
2021/07/25 07:47:44;;;;;;;;;;;20.50;99.90;;;;;;5014486;28;20289;-89
2021/07/25 07:50:10;;;;;;;;;;;20.50;99.90;;;;;;5014049;28;19917;-89
2021/07/25 07:52:36;;;;;;;;;;;20.50;99.90;;;;;;5032073;28;19971;-89
2021/07/25 07:55:02;;;;;;;;;;;20.60;99.90;;;;;;5014380;28;19913;-89
2021/07/25 07:57:27;;;;;;;;;;;20.60;99.90;;;;;;5014321;28;19991;-89
2021/07/25 08:00:11;;;;;;;;;;;20.60;99.90;;;;;;5013891;28;20429;-89
2021/07/25 08:03:16;;;;;;;;;;;20.60;99.90;;;;;;4970928;28;19911;-90
2021/07/25 08:09:38;;;;;;;;;;;20.80;99.90;;;;;;4913113;29;20408;-89
2021/07/25 08:19:18;;;;;;;;;;;20.80;99.90;;;;;;4838915;29;20439;-90
2021/07/25 08:40:35;;;;;;;;;;;21.10;99.90;;;;;;4776957;29;19921;-89
2021/07/25 08:43:01;;;;;;;;;;;21.20;99.90;;;;;;4801736;29;19919;-89
2021/07/25 08:45:26;;;;;;;;;;;21.20;99.90;;;;;;5004680;28;19909;-90
2021/07/25 08:47:58;;;;;;;;;;;21.20;99.90;;;;;;5017345;28;19916;-89
2021/07/25 08:50:27;;;;;;;;;;;21.30;99.90;;;;;;5016492;28;19940;-89
2021/07/25 08:52:54;;;;;;;;;;;21.20;99.90;;;;;;5017484;28;19909;-89
2021/07/25 08:55:20;;;;;;;;;;;21.30;99.90;;;;;;5017357;28;19910;-89
2021/07/25 08:57:47;;;;;;;;;;;21.40;99.80;;;;;;5017064;28;19913;-89
2021/07/25 09:00:14;;;;;;;;;;;21.40;99.80;;;;;;5016697;28;20404;-89
2021/07/25 09:02:39;;;;;;;;;;;21.40;99.70;;;;;;5034847;28;19963;-89
2021/07/25 09:05:05;;;;;;;;;;;21.40;99.70;;;;;;5017036;28;20325;-89
2021/07/25 09:07:31;;;;;;;;;;;21.50;99.50;;;;;;5034582;28;20012;-89
2021/07/25 09:10:00;;;;;;;;;;;21.50;99.10;;;;;;5016669;28;19963;-89
2021/07/25 09:12:26;;;;;;;;;;;21.50;98.90;;;;;;5034721;28;19931;-90
2021/07/25 09:14:54;;;;;;;;;;;21.60;98.60;;;;;;5034677;28;19919;-89
2021/07/25 09:17:20;;;;;;;;;;;21.60;98.60;;;;;;5016734;28;19967;-89
2021/07/25 09:20:04;;;;;;;;;;;21.70;98.60;;;;;;5016141;28;19917;-89
2021/07/25 09:22:29;;;;;;;;;;;21.80;98.40;;;;;;5016856;28;19979;-89
2021/07/25 09:24:55;;;;;;;;;;;21.80;97.80;;;;;;5034511;28;20362;-89
2021/07/25 09:27:23;;;;;;;;;;;21.90;97.90;;;;;;5034814;28;19914;-89
2021/07/25 09:29:48;;;;;;;;;;;21.90;97.40;;;;;;5033698;28;19948;-89
2021/07/25 09:32:15;;;;;;;;;;;22.00;97.30;;;;;;5016139;28;19952;-90
2021/07/25 09:34:45;;;;;;;;;;;22.00;97.10;;;;;;5016593;28;20163;-89
2021/07/25 09:37:14;;;;;;;;;;;22.00;97.20;;;;;;5016485;28;19913;-89
2021/07/25 09:39:47;;;;;;;;;;;22.10;97.40;;;;;;5015765;28;19943;-90
2021/07/25 09:42:13;;;;;;;;;;;22.10;97.40;;;;;;5016331;28;19916;-89
2021/07/25 09:44:46;;;;;;;;;;;22.20;97.10;;;;;;5034223;28;19913;-90
2021/07/25 09:47:34;;;;;;;;;;;22.20;96.90;;;;;;5016133;28;19939;-89
2021/07/25 09:50:00;;;;;;;;;;;22.30;97.00;;;;;;5034360;28;19968;-89
2021/07/25 09:52:29;;;;;;;;;;;22.30;97.20;;;;;;5035426;28;19905;-89
2021/07/25 09:54:56;;;;;;;;;;;22.40;96.50;;;;;;5035843;28;19916;-89
2021/07/25 09:57:23;;;;;;;;;;;22.40;96.20;;;;;;5016967;28;20370;-90
2021/07/25 09:59:48;;;;;;;;;;;22.40;96.30;;;;;;5015848;28;19909;-89
2021/07/25 10:02:29;;;;;;;;;;;22.40;96.50;;;;;;5015818;28;19916;-90
2021/07/25 10:05:17;;;;;;;;;;;22.50;96.20;;;;;;5015951;28;19909;-89
2021/07/25 10:07:43;;;;;;;;;;;22.50;96.30;;;;;;5015826;28;20259;-89
2021/07/25 10:10:10;;;;;;;;;;;22.60;96.10;;;;;;5015314;28;19909;-89
2021/07/25 10:12:40;;;;;;;;;;;22.60;95.70;;;;;;5033646;28;19909;-89
2021/07/25 10:15:09;;;;;;;;;;;22.60;95.40;;;;;;5015740;28;19932;-89
2021/07/25 10:17:36;;;;;;;;;;;22.70;95.50;;;;;;5015951;28;19992;-89
2021/07/25 10:20:03;;;;;;;;;;;22.70;95.70;;;;;;5032925;28;19909;-89
2021/07/25 10:22:30;;;;;;;;;;;22.70;95.80;;;;;;5015739;28;19909;-89
2021/07/25 10:24:57;;;;;;;;;;;22.70;95.30;;;;;;5015716;28;20313;-90
2021/07/25 10:27:22;;;;;;;;;;;22.80;94.90;;;;;;5033374;28;19909;-89
2021/07/25 10:29:51;;;;;;;;;;;22.80;95.00;;;;;;5015110;28;19917;-89
2021/07/25 10:32:17;;;;;;;;;;;22.80;94.80;;;;;;5033398;28;19913;-89
2021/07/25 10:34:46;;;;;;;;;;;22.90;94.50;;;;;;5015794;28;20220;-89
2021/07/25 10:37:12;;;;;;;;;;;22.90;94.60;;;;;;5033101;28;19913;-89
2021/07/25 10:39:41;;;;;;;;;;;22.90;94.10;;;;;;5015072;28;19995;-89
2021/07/25 10:42:07;;;;;;;;;;;22.90;94.50;;;;;;5015338;28;20286;-89
2021/07/25 10:44:36;;;;;;;;;;;23.00;94.30;;;;;;5014638;28;20334;-89
2021/07/25 10:47:16;;;;;;;;;;;23.10;93.90;;;;;;5033037;28;20293;-90
2021/07/25 10:49:42;;;;;;;;;;;23.00;94.10;;;;;;5014608;28;19952;-89
2021/07/25 10:52:08;;;;;;;;;;;23.10;94.20;;;;;;5015375;28;19967;-89
2021/07/25 10:54:34;;;;;;;;;;;23.20;94.10;;;;;;5015338;28;19909;-89
2021/07/25 10:56:59;;;;;;;;;;;23.30;93.80;;;;;;5015233;28;19974;-89
2021/07/25 10:59:40;;;;;;;;;;;23.60;93.00;;;;;;5014868;28;20271;-89
2021/07/25 11:02:29;;;;;;;;;;;23.70;93.30;;;;;;5015175;28;20393;-90
2021/07/25 11:04:55;;;;;;;;;;;23.70;93.10;;;;;;4997331;28;19916;-89
2021/07/25 11:07:20;;;;;;;;;;;23.80;93.00;;;;;;5036461;28;19992;-89
2021/07/25 11:09:56;;;;;;;;;;;23.80;93.00;;;;;;5019196;28;19906;-89
2021/07/25 11:12:21;;;;;;;;;;;23.80;92.60;;;;;;5019315;28;19913;-89
2021/07/25 11:14:56;;;;;;;;;;;23.80;92.40;;;;;;5036509;28;19909;-89
2021/07/25 11:17:40;;;;;;;;;;;23.90;92.20;;;;;;5018876;28;19917;-90
2021/07/25 11:20:06;;;;;;;;;;;23.80;92.60;;;;;;5033744;28;19947;-89
2021/07/25 11:22:44;;;;;;;;;;;23.80;92.30;;;;;;5014716;28;19948;-89
2021/07/25 11:25:09;;;;;;;;;;;23.80;92.50;;;;;;5015299;28;19923;-89
2021/07/25 11:27:47;;;;;;;;;;;23.80;92.00;;;;;;5014866;28;20313;-89
2021/07/25 11:30:13;;;;;;;;;;;23.70;91.90;;;;;;5014377;28;20008;-89
2021/07/25 11:32:38;;;;;;;;;;;23.70;92.00;;;;;;5015173;28;19978;-90
2021/07/25 11:35:04;;;;;;;;;;;23.60;91.80;;;;;;5016010;28;20393;-89
2021/07/25 11:37:39;;;;;;;;;;;23.60;91.40;;;;;;5016702;28;19913;-89
2021/07/25 11:40:08;;;;;;;;;;;23.60;91.40;;;;;;5016473;28;19913;-89
2021/07/25 11:42:34;;;;;;;;;;;23.50;91.50;;;;;;5016429;28;19909;-89
2021/07/25 11:45:04;;;;;;;;;;;23.50;91.80;;;;;;5015945;28;19916;-90
2021/07/25 11:47:30;;;;;;;;;;;23.50;91.90;;;;;;5015679;28;19909;-89
2021/07/25 11:49:56;;;;;;;;;;;23.50;92.10;;;;;;5015817;28;19975;-89
2021/07/25 11:52:21;;;;;;;;;;;23.50;92.10;;;;;;5015732;28;20274;-89
2021/07/25 11:54:47;;;;;;;;;;;23.50;91.80;;;;;;5016707;28;19909;-89
2021/07/25 11:57:13;;;;;;;;;;;23.50;91.40;;;;;;5038146;28;19913;-89
2021/07/25 11:59:45;;;;;;;;;;;23.50;91.10;;;;;;5038185;28;19913;-89
2021/07/25 12:02:10;;;;;;;;;;;23.50;91.70;;;;;;5020560;28;19916;-89
2021/07/25 12:04:43;;;;;;;;;;;23.60;91.60;;;;;;5019573;28;19909;-89
2021/07/25 12:07:14;;;;;;;;;;;23.60;91.90;;;;;;5036468;28;19909;-89
2021/07/25 12:09:53;;;;;;;;;;;23.60;91.70;;;;;;5018276;28;19910;-89
2021/07/25 12:12:20;;;;;;;;;;;23.70;91.70;;;;;;5018577;28;20003;-89
2021/07/25 12:30:48;;;;;;;;;;;23.90;91.40;;;;;;4973796;28;19969;-89
2021/07/25 12:48:58;;;;;;;;;;;24.60;87.90;;;;;;5035284;28;20338;-89
2021/07/25 12:58:29;;;;;;;;;;;24.70;85.80;;;;;;4973808;28;20459;-89
2021/07/25 13:10:43;;;;;;;;;;;24.50;85.60;;;;;;4915364;29;20404;-89
2021/07/25 13:13:29;;;;;;;;;;;24.60;84.70;;;;;;4915965;29;20519;-89
2021/07/25 13:15:54;;;;;;;;;;;24.70;83.10;;;;;;4912263;28;19911;-89
2021/07/25 13:18:21;;;;;;;;;;;24.80;82.60;;;;;;5016822;28;20390;-89
2021/07/25 13:20:47;;;;;;;;;;;24.70;83.40;;;;;;5016231;28;19917;-89
2021/07/25 13:23:12;;;;;;;;;;;24.50;84.00;;;;;;5016872;28;20343;-89
2021/07/25 13:25:38;;;;;;;;;;;24.40;84.90;;;;;;5034447;28;19949;-88
2021/07/25 13:28:04;;;;;;;;;;;24.30;84.80;;;;;;5016839;28;19944;-88
2021/07/25 13:30:29;;;;;;;;;;;24.20;85.70;;;;;;5016169;28;19963;-89
2021/07/25 13:32:55;;;;;;;;;;;24.20;86.40;;;;;;5016872;28;19909;-88
2021/07/25 13:35:20;;;;;;;;;;;24.10;86.40;;;;;;5035223;28;19944;-89
2021/07/25 13:37:46;;;;;;;;;;;24.20;84.70;;;;;;5016650;28;19917;-88
2021/07/25 13:40:11;;;;;;;;;;;24.30;84.10;;;;;;5034362;28;19977;-88
2021/07/25 13:42:37;;;;;;;;;;;24.30;83.80;;;;;;5016360;28;19992;-88
2021/07/25 13:45:08;;;;;;;;;;;24.40;82.80;;;;;;5016452;28;19909;-88
2021/07/25 13:47:34;;;;;;;;;;;24.60;82.40;;;;;;5016255;28;19932;-89
2021/07/25 13:49:59;;;;;;;;;;;24.70;82.30;;;;;;5015823;28;19909;-88
2021/07/25 13:52:26;;;;;;;;;;;24.70;80.70;;;;;;5016194;28;19909;-88
2021/07/25 13:54:51;;;;;;;;;;;24.80;80.50;;;;;;5016208;28;19913;-88
2021/07/25 13:57:17;;;;;;;;;;;24.80;82.00;;;;;;5016327;28;19920;-88
2021/07/25 13:59:42;;;;;;;;;;;24.80;78.90;;;;;;5015941;28;19913;-88
2021/07/25 14:02:08;;;;;;;;;;;25.00;77.90;;;;;;5034401;28;19920;-88
2021/07/25 14:04:33;;;;;;;;;;;25.10;78.60;;;;;;5017032;28;20273;-88
2021/07/25 14:06:59;;;;;;;;;;;25.30;78.10;;;;;;5017006;28;21483;-88
2021/07/25 14:09:24;;;;;;;;;;;25.30;78.00;;;;;;5034329;28;19996;-90
2021/07/25 14:11:50;;;;;;;;;;;25.40;78.60;;;;;;5034720;28;19908;-88
2021/07/25 14:14:18;;;;;;;;;;;25.60;78.80;;;;;;5016950;28;19917;-88
2021/07/25 14:16:44;;;;;;;;;;;25.70;79.00;;;;;;5015803;28;20281;-88
2021/07/25 14:19:09;;;;;;;;;;;25.90;77.50;;;;;;5015383;28;19991;-87
2021/07/25 14:21:35;;;;;;;;;;;25.90;76.60;;;;;;5015842;28;19913;-88
2021/07/25 14:24:01;;;;;;;;;;;26.00;76.20;;;;;;5015539;28;20011;-88
2021/07/25 14:26:26;;;;;;;;;;;26.20;76.10;;;;;;5015521;28;20400;-88
2021/07/25 14:28:52;;;;;;;;;;;26.40;75.90;;;;;;5015162;28;19909;-89
2021/07/25 14:31:18;;;;;;;;;;;26.70;75.20;;;;;;5015401;28;19960;-88
2021/07/25 14:33:43;;;;;;;;;;;27.10;73.60;;;;;;5015453;28;19909;-88
2021/07/25 14:36:12;;;;;;;;;;;27.70;71.40;;;;;;5032936;28;19924;-88
2021/07/25 14:38:38;;;;;;;;;;;28.30;69.40;;;;;;5015358;28;19913;-88
2021/07/25 14:41:03;;;;;;;;;;;28.60;68.60;;;;;;5014792;28;20020;-88
2021/07/25 14:43:29;;;;;;;;;;;28.30;69.20;;;;;;5015280;28;20313;-88
2021/07/25 14:45:55;;;;;;;;;;;27.90;71.80;;;;;;5015310;28;19909;-88
2021/07/25 14:48:20;;;;;;;;;;;27.60;75.60;;;;;;5015112;28;20400;-88
2021/07/25 14:50:46;;;;;;;;;;;27.20;77.60;;;;;;5014614;28;20290;-88
2021/07/25 14:53:11;;;;;;;;;;;26.80;79.00;;;;;;5015145;28;19945;-88
2021/07/25 14:55:37;;;;;;;;;;;26.50;81.10;;;;;;5032898;28;19909;-88
2021/07/25 14:58:02;;;;;;;;;;;26.20;83.10;;;;;;5014971;28;19917;-89
2021/07/25 15:00:28;;;;;;;;;;;25.90;84.30;;;;;;5032180;28;19913;-89
2021/07/25 15:02:53;;;;;;;;;;;25.70;85.40;;;;;;5033983;28;19909;-88
2021/07/25 15:05:19;;;;;;;;;;;25.40;88.20;;;;;;5015097;28;19916;-88
2021/07/25 15:07:44;;;;;;;;;;;25.20;90.10;;;;;;5032685;28;20004;-88
2021/07/25 15:10:10;;;;;;;;;;;25.10;90.90;;;;;;5014335;28;19909;-88
2021/07/25 15:12:35;;;;;;;;;;;24.90;89.80;;;;;;5014686;28;19917;-88
2021/07/25 15:15:01;;;;;;;;;;;24.70;90.20;;;;;;5014866;28;20024;-88
2021/07/25 15:17:26;;;;;;;;;;;24.60;89.40;;;;;;5032644;28;19921;-88
2021/07/25 15:19:52;;;;;;;;;;;24.50;89.30;;;;;;5014246;28;20328;-88
2021/07/25 15:22:17;;;;;;;;;;;24.40;89.40;;;;;;5014636;28;19909;-88
2021/07/25 15:24:43;;;;;;;;;;;24.20;90.50;;;;;;5014683;28;19909;-88
2021/07/25 15:27:09;;;;;;;;;;;24.10;91.60;;;;;;5014593;28;19909;-88
2021/07/25 15:29:35;;;;;;;;;;;24.00;92.70;;;;;;5013674;28;19960;-88
2021/07/25 15:32:01;;;;;;;;;;;23.90;93.70;;;;;;5014610;28;19920;-87
2021/07/25 15:34:26;;;;;;;;;;;23.80;94.60;;;;;;5032337;28;19909;-89